カルガリー の空港の天気 - METARとTAF

カルガリー国際空港 ( CYYC / YYC ) - カナダ アルバータ州カルガリー
飛行場実況気象(Metar)
観測時間01/29 01:00 MST (01/29 08:00 UTC)
風向・風速東北東 3m/s
視程10km以上
天気現象
全天の8割程度の雲 雲底高度 7320m
気温0℃
湿度37%
気圧1018.2hPa
METARCYYC 290800Z 07005KT 270V080 15SM BKN240 00/M13 A2997 RMK CI7 SLP182
過去の天気等 Google飛行場航空写真 Wunderground天気予報

過去48時間のMETAR

飛行場予報(TAF)
発表時間: 1/28 22:40 MST (1/29 05:40 UTC)
予報対象時間: 28日23時 MST ~ 29日23時 MST
風向・風速不定 2m/s
視程10km以上
全天の8割程度の雲 雲底高度 6710m
28日23時 MST ~ 29日1時 MST に徐々に
風向・風速西 4m/s
29日13時 MST から
風向・風速西 6m/s
視程10km以上
全天の8割程度の雲 雲底高度 4270m
29日19時 MST ~ 29日21時 MST に徐々に
風向・風速西 8m/s
TAF CYYC 290540Z 2906/3006 VRB03KT P6SM BKN220
BECMG 2906/2908 27008KT
FM292000 27012KT P6SM BKN140
BECMG 3002/3004 27015KT RMK NXT FCST BY 290900Z